Time;durP1;ratioP1;P1;durP2;ratioP2;P2;SDS_P1;SDS_P2;PMS_P1;PMS_P2;Temp;Humidity;BMP_temperature;BMP_pressure;BME280_temperature;BME280_humidity;BME280_pressure;Samples;Min_cycle;Max_cycle;Signal;HPM_P1;HPM_P2
2021/10/11 00:01:03;;;;;;;19.70;8.60;;;;;;;14.39;48.70;100480.63;4482322;32;35216;-48
2021/10/11 00:03:31;;;;;;;19.48;7.82;;;;;;;14.48;48.50;100472.72;4481932;32;33875;-51
2021/10/11 00:05:58;;;;;;;18.77;8.57;;;;;;;14.41;48.84;100472.75;4482200;32;34746;-47
2021/10/11 00:08:25;;;;;;;17.40;8.23;;;;;;;14.39;48.79;100475.41;4482074;32;34633;-46
2021/10/11 00:10:53;;;;;;;16.50;8.25;;;;;;;14.42;49.34;100477.13;4482278;32;35363;-48
2021/10/11 00:13:22;;;;;;;16.67;7.35;;;;;;;14.38;49.75;100481.50;4467711;32;33538;-48
2021/10/11 00:15:49;;;;;;;14.95;7.70;;;;;;;14.39;49.85;100472.78;4481788;32;34449;-47
2021/10/11 00:18:18;;;;;;;15.60;8.10;;;;;;;14.34;50.10;100478.91;4482025;32;35374;-48
2021/10/11 00:20:46;;;;;;;13.98;7.68;;;;;;;14.42;50.43;100482.38;4468198;32;34163;-50
2021/10/11 00:23:15;;;;;;;14.80;7.82;;;;;;;14.47;50.35;100475.38;4482106;32;33429;-50
2021/10/11 00:25:42;;;;;;;16.75;7.57;;;;;;;14.33;50.68;100474.56;4481837;32;34691;-47
2021/10/11 00:28:10;;;;;;;17.60;7.40;;;;;;;14.38;50.50;100470.19;4482302;32;35644;-47
2021/10/11 00:30:37;;;;;;;16.25;7.32;;;;;;;14.37;50.33;100468.44;4481821;32;34216;-47
2021/10/11 00:33:05;;;;;;;15.23;8.18;;;;;;;14.28;50.76;100458.84;4481856;32;34400;-47
2021/10/11 00:35:33;;;;;;;16.40;8.23;;;;;;;14.32;51.07;100465.84;4481786;32;33940;-48
2021/10/11 00:38:00;;;;;;;16.45;9.55;;;;;;;14.27;51.71;100463.22;4481906;32;34780;-47
2021/10/11 00:40:28;;;;;;;15.15;8.48;;;;;;;14.21;51.98;100457.16;4481727;32;34665;-50
2021/10/11 00:42:56;;;;;;;19.58;8.75;;;;;;;14.03;52.14;100452.84;4481757;32;33660;-47
2021/10/11 00:45:23;;;;;;;20.23;9.25;;;;;;;14.14;52.11;100451.03;4481647;32;35105;-47
2021/10/11 00:47:51;;;;;;;16.85;9.98;;;;;;;14.27;52.04;100447.50;4467217;32;34774;-54
2021/10/11 00:50:19;;;;;;;16.65;8.88;;;;;;;14.12;52.47;100439.72;4481408;32;35262;-47
2021/10/11 00:52:47;;;;;;;15.50;9.18;;;;;;;14.16;52.31;100444.09;4481397;32;34027;-47
2021/10/11 00:55:14;;;;;;;14.43;7.97;;;;;;;14.22;52.22;100443.16;4481374;32;33765;-47
2021/10/11 00:57:42;;;;;;;15.15;8.23;;;;;;;14.15;52.35;100446.69;4467296;32;35703;-47
2021/10/11 01:00:10;;;;;;;13.73;7.30;;;;;;;14.22;51.93;100449.28;4481458;32;34954;-49
2021/10/11 01:02:40;;;;;;;14.35;8.07;;;;;;;14.16;52.02;100451.94;4481487;32;33539;-47
2021/10/11 01:05:08;;;;;;;14.50;7.53;;;;;;;14.13;52.06;100453.69;4481395;32;35236;-47
2021/10/11 01:07:35;;;;;;;16.83;8.13;;;;;;;14.00;51.65;100446.78;4481333;32;36114;-50
2021/10/11 01:10:03;;;;;;;14.85;7.43;;;;;;;14.13;51.40;100445.84;4481400;32;34363;-47
2021/10/11 01:12:31;;;;;;;12.80;7.05;;;;;;;14.00;51.21;100441.53;4481448;32;33676;-48
2021/10/11 01:14:58;;;;;;;15.63;7.50;;;;;;;14.05;51.04;100435.41;4481292;32;34998;-47
2021/10/11 01:17:26;;;;;;;10.18;6.43;;;;;;;14.18;50.74;100441.44;4481110;32;35815;-48
2021/10/11 01:19:57;;;;;;;13.23;7.22;;;;;;;14.07;50.74;100438.88;4467189;32;34368;-48
2021/10/11 01:22:36;;;;;;;15.02;6.82;;;;;;;14.15;50.53;100437.09;4481142;32;33306;-48
2021/10/11 01:25:05;;;;;;;14.05;6.95;;;;;;;14.10;50.34;100433.63;4480507;32;34922;-47
2021/10/11 01:27:34;;;;;;;10.48;6.47;;;;;;;14.11;50.18;100426.66;4481313;32;35375;-46
2021/10/11 01:30:03;;;;;;;14.93;7.15;;;;;;;14.08;50.37;100424.94;4481129;32;35123;-48
2021/10/11 01:32:31;;;;;;;14.93;7.12;;;;;;;14.21;50.06;100431.81;4480914;32;34383;-47
2021/10/11 01:34:58;;;;;;;16.58;7.57;;;;;;;14.08;50.37;100424.06;4480906;32;34796;-49
2021/10/11 01:37:26;;;;;;;16.58;8.35;;;;;;;14.00;50.45;100421.47;4481152;32;35381;-47
2021/10/11 01:39:54;;;;;;;15.63;7.62;;;;;;;14.11;50.35;100422.31;4481017;32;34204;-48
2021/10/11 01:42:21;;;;;;;18.30;7.20;;;;;;;14.10;50.28;100417.94;4481168;32;33762;-47
2021/10/11 01:44:48;;;;;;;9.95;6.87;;;;;;;14.17;50.16;100421.38;4466265;32;34436;-48
2021/10/11 01:47:16;;;;;;;13.18;7.35;;;;;;;14.16;50.14;100417.94;4466701;32;35723;-47
2021/10/11 01:49:43;;;;;;;12.15;7.72;;;;;;;14.02;50.62;100406.66;4480718;32;34954;-47
2021/10/11 01:52:11;;;;;;;12.00;7.12;;;;;;;14.04;50.26;100404.91;4453933;32;33698;-47
2021/10/11 01:54:38;;;;;;;13.65;7.90;;;;;;;14.03;50.27;100403.16;4480851;32;34311;-48
2021/10/11 01:57:06;;;;;;;13.43;6.72;;;;;;;14.23;49.84;100401.31;4480742;32;36029;-47
2021/10/11 01:59:33;;;;;;;13.23;7.30;;;;;;;14.29;49.89;100403.00;4480697;32;34743;-48
2021/10/11 02:02:03;;;;;;;13.27;6.90;;;;;;;14.09;50.09;100394.41;4480755;32;33334;-47
2021/10/11 02:04:31;;;;;;;15.82;7.20;;;;;;;14.00;50.22;100397.94;4480657;32;33869;-47
2021/10/11 02:06:58;;;;;;;14.70;7.07;;;;;;;14.09;50.46;100395.28;4480499;32;34925;-47
2021/10/11 02:09:25;;;;;;;12.52;6.72;;;;;;;14.13;50.41;100398.75;4480695;32;35608;-48
2021/10/11 02:11:53;;;;;;;13.82;8.15;;;;;;;14.14;50.64;100390.88;4480448;32;33460;-47
2021/10/11 02:14:20;;;;;;;15.75;7.72;;;;;;;14.09;50.77;100403.13;4480452;32;33753;-47
2021/10/11 02:16:48;;;;;;;16.20;7.62;;;;;;;14.20;50.52;100396.09;4480509;32;34732;-46
2021/10/11 02:19:15;;;;;;;17.00;8.00;;;;;;;14.04;51.58;100386.59;4480284;32;35302;-47
2021/10/11 02:21:43;;;;;;;15.95;8.63;;;;;;;14.14;51.95;100377.81;4480426;32;34372;-47
2021/10/11 02:24:10;;;;;;;14.30;8.00;;;;;;;14.07;52.45;100370.03;4480212;32;34048;-47
2021/10/11 02:26:38;;;;;;;14.75;8.13;;;;;;;14.08;52.86;100370.00;4480429;32;36123;-47
2021/10/11 02:29:06;;;;;;;18.45;9.55;;;;;;;14.03;52.96;100366.53;4480228;32;34238;-47
2021/10/11 02:31:34;;;;;;;16.40;8.63;;;;;;;14.00;53.20;100374.38;4480083;32;33534;-46
2021/10/11 02:34:01;;;;;;;12.00;8.18;;;;;;;14.08;53.21;100362.16;4480296;32;34601;-47
2021/10/11 02:36:29;;;;;;;15.23;8.60;;;;;;;13.93;53.66;100367.44;4481427;32;35270;-47
2021/10/11 02:38:57;;;;;;;13.40;8.35;;;;;;;14.05;53.26;100356.06;4468398;32;33724;-48
2021/10/11 02:41:24;;;;;;;14.82;8.77;;;;;;;13.92;53.57;100359.63;4482538;32;33973;-47
2021/10/11 02:43:52;;;;;;;12.43;8.43;;;;;;;13.89;53.78;100365.75;4482931;32;33973;-48
2021/10/11 02:46:19;;;;;;;17.15;8.70;;;;;;;13.97;53.63;100352.63;4482880;32;37235;-47
2021/10/11 02:48:47;;;;;;;12.85;8.90;;;;;;;14.04;53.42;100355.22;4468641;32;35115;-47
2021/10/11 02:51:14;;;;;;;14.30;8.50;;;;;;;13.96;53.74;100356.97;4482771;32;34347;-47
2021/10/11 02:53:42;;;;;;;16.95;8.90;;;;;;;13.94;53.89;100353.50;4482772;32;34146;-47
2021/10/11 02:56:09;;;;;;;13.40;8.77;;;;;;;14.05;53.45;100349.09;4468758;32;35664;-47
2021/10/11 02:58:37;;;;;;;20.37;9.35;;;;;;;14.03;53.47;100353.47;4482606;32;35634;-48
2021/10/11 03:01:04;;;;;;;15.75;8.95;;;;;;;13.95;53.88;100349.16;4482747;32;33594;-47
2021/10/11 03:03:32;;;;;;;14.73;8.02;;;;;;;13.90;54.12;100362.25;4482952;32;34691;-48
2021/10/11 03:05:59;;;;;;;25.77;8.68;;;;;;;13.87;53.86;100354.41;4482390;32;35571;-47
2021/10/11 03:08:27;;;;;;;15.48;8.50;;;;;;;13.95;53.67;100359.63;4482531;32;34856;-47
2021/10/11 03:10:55;;;;;;;15.38;8.63;;;;;;;14.02;53.68;100353.47;4482578;32;33540;-48
2021/10/11 03:13:22;;;;;;;14.05;8.55;;;;;;;14.08;53.56;100351.69;4482709;32;34250;-47
2021/10/11 03:15:49;;;;;;;17.77;8.77;;;;;;;13.99;53.60;100341.28;4482994;32;35002;-47
2021/10/11 03:18:17;;;;;;;14.63;8.45;;;;;;;13.91;54.10;100340.44;4482833;32;35087;-47
2021/10/11 03:20:45;;;;;;;15.70;8.95;;;;;;;13.88;54.39;100337.84;4482813;32;33410;-47
2021/10/11 03:23:12;;;;;;;12.65;7.75;;;;;;;13.87;54.22;100335.25;4468693;32;34027;-47
2021/10/11 03:25:40;;;;;;;15.15;8.57;;;;;;;13.85;54.45;100327.41;4483059;32;35611;-47
2021/10/11 03:28:07;;;;;;;14.70;8.30;;;;;;;13.94;54.06;100322.13;4467971;32;33761;-47
2021/10/11 03:30:35;;;;;;;15.10;8.27;;;;;;;13.94;54.27;100327.34;4482406;32;33367;-46
2021/10/11 03:33:03;;;;;;;14.43;9.00;;;;;;;13.83;54.50;100326.56;4482460;32;33910;-47
2021/10/11 03:35:31;;;;;;;12.23;7.68;;;;;;;13.91;53.94;100327.38;4482540;32;35741;-48
2021/10/11 03:37:59;;;;;;;14.87;8.90;;;;;;;13.90;53.73;100323.03;4482357;32;34611;-48
2021/10/11 03:40:28;;;;;;;16.30;9.02;;;;;;;13.79;53.78;100322.19;4482474;32;33444;-47
2021/10/11 03:42:55;;;;;;;12.50;8.15;;;;;;;13.80;54.01;100316.09;4482325;32;33971;-49
2021/10/11 03:45:23;;;;;;;16.55;8.13;;;;;;;13.84;54.04;100317.81;4482364;32;35135;-47
2021/10/11 03:47:50;;;;;;;13.15;8.32;;;;;;;13.75;54.34;100317.00;4481879;32;35212;-48
2021/10/11 03:50:18;;;;;;;13.80;8.35;;;;;;;13.75;54.62;100309.16;4482311;32;34092;-47
2021/10/11 03:52:45;;;;;;;19.75;10.02;;;;;;;13.86;54.27;100308.22;4468230;32;34349;-47
2021/10/11 03:55:13;;;;;;;16.25;8.05;;;;;;;13.86;54.49;100302.16;4467790;32;34898;-47
2021/10/11 03:57:40;;;;;;;14.50;8.68;;;;;;;14.02;54.33;100314.25;4482057;32;34190;-47
2021/10/11 04:00:10;;;;;;;18.48;8.70;;;;;;;13.97;54.70;100310.78;4482059;32;33426;-47
2021/10/11 04:02:38;;;;;;;14.68;8.63;;;;;;;13.78;54.99;100312.63;4481792;32;34246;-47
2021/10/11 04:05:07;;;;;;;14.68;8.05;;;;;;;13.85;55.47;100303.88;4481911;32;34815;-47
2021/10/11 04:07:36;;;;;;;15.05;8.88;;;;;;;13.79;56.08;100305.63;4482094;32;34885;-50
2021/10/11 04:10:06;;;;;;;26.65;9.07;;;;;;;13.67;56.78;100306.56;4482197;32;33238;-46
2021/10/11 04:12:34;;;;;;;20.77;9.55;;;;;;;13.81;57.06;100309.97;4483330;32;33844;-49
2021/10/11 04:15:07;;;;;;;16.52;9.00;;;;;;;13.76;56.88;100309.16;4468507;32;34741;-46
2021/10/11 04:17:40;;;;;;;;;;;;;;;13.98;57.06;100305.53;4482748;32;35121;-46
2021/10/11 04:20:08;;;;;;;15.65;9.20;;;;;;;13.85;57.80;100310.84;4482622;32;33919;-46
2021/10/11 04:22:36;;;;;;;16.12;8.90;;;;;;;13.86;58.05;100307.38;4482145;32;34627;-46
2021/10/11 04:25:04;;;;;;;17.30;8.82;;;;;;;13.72;58.52;100306.53;4482125;32;34811;-47
2021/10/11 04:27:31;;;;;;;15.55;8.93;;;;;;;13.31;59.59;100307.59;4482307;32;34778;-47
2021/10/11 04:29:59;;;;;;;13.70;8.52;;;;;;;13.35;59.37;100309.34;4482380;32;33893;-46
2021/10/11 04:32:26;;;;;;;15.60;8.45;;;;;;;13.55;58.78;100306.62;4482403;32;34177;-47
2021/10/11 04:34:54;;;;;;;17.55;10.73;;;;;;;13.57;58.95;100316.19;4482252;32;34732;-50
2021/10/11 04:37:21;;;;;;;31.00;18.65;;;;;;;13.56;58.50;100313.59;4482478;32;34619;-47
2021/10/11 04:39:49;;;;;;;28.33;15.73;;;;;;;13.47;58.97;100324.09;4482831;32;33560;-46
2021/10/11 04:42:17;;;;;;;17.33;10.60;;;;;;;13.49;58.73;100311.87;4482652;32;35037;-47
2021/10/11 04:44:44;;;;;;;18.35;9.75;;;;;;;13.30;59.28;100315.44;4482783;32;34741;-47
2021/10/11 04:47:12;;;;;;;15.23;9.45;;;;;;;13.44;58.66;100303.19;4482442;32;34330;-46
2021/10/11 04:49:39;;;;;;;19.98;9.13;;;;;;;13.47;58.50;100308.41;4482229;32;34272;-47
2021/10/11 04:52:07;;;;;;;14.80;8.40;;;;;;;13.31;58.51;100304.97;4482374;32;34079;-46
2021/10/11 04:54:34;;;;;;;16.27;9.73;;;;;;;13.38;57.81;100305.84;4482230;32;34796;-49
2021/10/11 04:57:02;;;;;;;13.52;9.02;;;;;;;13.47;57.64;100303.19;4482493;32;34157;-46
2021/10/11 04:59:29;;;;;;;17.98;8.93;;;;;;;13.50;57.73;100306.66;4480866;32;33925;-46
2021/10/11 05:01:57;;;;;;;16.50;9.20;;;;;;;13.51;58.18;100304.91;4482319;32;34456;-48
2021/10/11 05:04:24;;;;;;;17.65;9.40;;;;;;;13.28;58.57;100305.00;4468087;32;35771;-46
2021/10/11 05:06:52;;;;;;;14.55;8.98;;;;;;;13.16;58.58;100307.66;4468096;32;33911;-49
2021/10/11 05:09:19;;;;;;;16.52;9.27;;;;;;;13.24;58.41;100310.25;4482185;32;34372;-47
2021/10/11 05:11:47;;;;;;;13.65;8.85;;;;;;;13.29;57.80;100305.84;4482148;32;33940;-48
2021/10/11 05:14:14;;;;;;;18.42;9.07;;;;;;;13.35;57.50;100298.00;4482052;32;35770;-46
2021/10/11 05:16:42;;;;;;;14.73;8.68;;;;;;;13.16;57.85;100305.03;4482066;32;34674;-47
2021/10/11 05:19:10;;;;;;;15.48;8.63;;;;;;;13.34;57.36;100298.88;4482094;32;33541;-46
2021/10/11 05:21:38;;;;;;;15.18;8.77;;;;;;;13.38;57.30;100298.84;4481948;32;34916;-46
2021/10/11 05:24:05;;;;;;;17.77;9.23;;;;;;;13.30;57.31;100305.00;4481943;32;36056;-48
2021/10/11 05:26:33;;;;;;;16.87;8.30;;;;;;;13.37;57.49;100302.34;4467933;32;34894;-47
2021/10/11 05:29:01;;;;;;;15.00;8.20;;;;;;;13.40;57.16;100298.88;4481915;32;33489;-48
2021/10/11 05:31:28;;;;;;;16.77;8.95;;;;;;;13.45;57.28;100304.94;4467883;32;33594;-47
2021/10/11 05:33:56;;;;;;;17.00;8.45;;;;;;;13.52;56.70;100298.81;4481928;32;34636;-47
2021/10/11 05:36:23;;;;;;;17.87;8.32;;;;;;;13.33;57.19;100307.59;4481910;32;34196;-50
2021/10/11 05:38:51;;;;;;;16.15;9.10;;;;;;;13.26;57.42;100313.72;4482272;32;33335;-48
2021/10/11 05:41:21;;;;;;;15.05;8.75;;;;;;;13.28;57.27;100314.59;4481828;32;33984;-47
2021/10/11 05:43:49;;;;;;;14.98;9.25;;;;;;;13.32;57.29;100314.56;4467646;32;35766;-46
2021/10/11 05:46:16;;;;;;;14.32;8.77;;;;;;;13.31;57.63;100311.97;4481815;32;35607;-50
2021/10/11 05:48:43;;;;;;;13.93;8.77;;;;;;;13.38;57.77;100314.53;4467579;32;33364;-48
2021/10/11 05:51:11;;;;;;;17.00;9.00;;;;;;;13.45;57.52;100312.78;4481770;32;34767;-47
2021/10/11 05:53:38;;;;;;;15.63;9.23;;;;;;;13.45;57.29;100315.41;4481705;32;35737;-46
2021/10/11 05:56:06;;;;;;;25.25;14.38;;;;;;;13.44;57.48;100313.66;4481606;32;35123;-47
2021/10/11 05:58:33;;;;;;;37.35;20.58;;;;;;;13.43;57.62;100312.78;4467522;32;33490;-49
2021/10/11 06:01:01;;;;;;;33.83;17.95;;;;;;;13.48;57.65;100320.59;4481440;32;34811;-48
2021/10/11 06:03:28;;;;;;;20.50;11.75;;;;;;;13.51;57.85;100317.97;4481446;32;35750;-47
2021/10/11 06:05:56;;;;;;;22.67;13.95;;;;;;;13.52;57.80;100322.34;4481510;32;35012;-47
2021/10/11 06:08:25;;;;;;;28.00;17.00;;;;;;;13.52;57.82;100328.44;4481442;32;33837;-47
2021/10/11 06:10:54;;;;;;;24.45;13.27;;;;;;;13.51;58.00;100331.03;4483896;32;34500;-47
2021/10/11 06:13:22;;;;;;;14.43;8.65;;;;;;;13.37;57.78;100333.72;4486882;32;35019;-47
2021/10/11 06:15:49;;;;;;;16.42;10.05;;;;;;;13.27;57.31;100336.34;4486637;32;34121;-47
2021/10/11 06:18:17;;;;;;;16.08;9.40;;;;;;;13.04;57.88;100336.38;4486806;32;33528;-46
2021/10/11 06:20:45;;;;;;;14.87;9.18;;;;;;;13.08;57.87;100337.25;4486911;32;34030;-48
2021/10/11 06:23:13;;;;;;;16.65;9.88;;;;;;;13.04;57.83;100333.75;4486600;32;35934;-46
2021/10/11 06:25:41;;;;;;;22.80;9.98;;;;;;;13.21;57.34;100341.59;4472599;32;34724;-49
2021/10/11 06:28:08;;;;;;;19.05;9.85;;;;;;;13.38;56.62;100337.19;4486575;32;33841;-46
2021/10/11 06:30:37;;;;;;;24.77;10.50;;;;;;;13.49;56.17;100344.12;4486530;32;33956;-47
2021/10/11 06:33:05;;;;;;;26.60;10.52;;;;;;;13.46;56.24;100344.12;4486228;32;35872;-46
2021/10/11 06:35:33;;;;;;;22.52;9.73;;;;;;;13.57;56.42;100346.72;4486443;32;34806;-47
2021/10/11 06:38:00;;;;;;;17.65;10.05;;;;;;;13.62;56.00;100344.94;4486773;32;34222;-47
2021/10/11 06:40:28;;;;;;;19.98;9.82;;;;;;;13.48;56.30;100341.50;4486588;32;34216;-47
2021/10/11 06:42:58;;;;;;;17.33;9.57;;;;;;;13.68;55.88;100344.91;4459789;32;34696;-46
2021/10/11 06:45:25;;;;;;;15.95;9.32;;;;;;;13.67;55.97;100345.78;4472734;32;34791;-47
2021/10/11 06:47:53;;;;;;;17.85;9.13;;;;;;;13.73;55.39;100348.38;4486180;32;33696;-46
2021/10/11 06:50:20;;;;;;;13.98;8.80;;;;;;;13.70;55.40;100340.53;4485755;32;34679;-49
2021/10/11 06:52:48;;;;;;;17.08;8.45;;;;;;;13.69;54.89;100345.78;4484972;32;35030;-47
2021/10/11 06:55:16;;;;;;;13.23;9.05;;;;;;;13.76;55.16;100350.13;4485944;32;34502;-47
2021/10/11 06:57:44;;;;;;;16.75;8.95;;;;;;;13.70;54.75;100345.78;4471600;32;34676;-47
2021/10/11 07:00:12;;;;;;;14.38;9.40;;;;;;;13.79;55.08;100348.34;4485943;32;33909;-47
2021/10/11 07:02:40;;;;;;;16.37;10.10;;;;;;;13.72;54.71;100349.25;4485745;32;35522;-46
2021/10/11 07:05:09;;;;;;;25.02;10.02;;;;;;;13.65;55.02;100360.59;4471630;32;34387;-47
2021/10/11 07:07:39;;;;;;;15.02;9.57;;;;;;;13.87;54.66;100349.19;4486124;32;34316;-49
2021/10/11 07:10:08;;;;;;;15.20;9.23;;;;;;;13.88;54.93;100355.28;4486558;32;34105;-48
2021/10/11 07:12:36;;;;;;;15.40;9.45;;;;;;;13.98;55.09;100343.88;4486613;32;34807;-46
2021/10/11 07:15:21;;;;;;;16.33;9.35;;;;;;;14.13;54.28;100349.03;4486523;32;34812;-47
2021/10/11 07:17:48;;;;;;;18.25;10.88;;;;;;;14.27;54.32;100349.81;4486631;32;33899;-47
2021/10/11 07:20:16;;;;;;;19.73;9.93;;;;;;;14.09;55.70;100348.22;4486146;32;34517;-46
2021/10/11 07:22:43;;;;;;;16.62;9.55;;;;;;;14.16;55.71;100347.28;4483028;32;35671;-47
2021/10/11 07:25:11;;;;;;;18.30;10.25;;;;;;;14.30;56.52;100356.78;4468528;32;34068;-46
2021/10/11 07:27:38;;;;;;;21.62;9.82;;;;;;;14.46;55.93;100351.47;4482494;32;33632;-48
2021/10/11 07:30:06;;;;;;;18.58;11.00;;;;;;;14.47;56.60;100353.22;4482213;32;33922;-47
2021/10/11 07:32:34;;;;;;;19.15;10.23;;;;;;;14.46;56.77;100355.84;4482307;32;35161;-47
2021/10/11 07:35:01;;;;;;;19.65;10.15;;;;;;;14.55;56.46;100348.78;4482645;32;34609;-47
2021/10/11 07:37:29;;;;;;;15.57;9.27;;;;;;;14.69;56.13;100354.78;4482547;32;34860;-46
2021/10/11 07:39:57;;;;;;;23.60;9.90;;;;;;;14.81;56.05;100351.19;4482154;32;34242;-47
2021/10/11 07:42:24;;;;;;;16.95;10.13;;;;;;;14.85;56.43;100353.78;4482686;32;35406;-47
2021/10/11 07:44:52;;;;;;;16.27;10.18;;;;;;;14.91;56.78;100352.84;4483084;32;34160;-47
2021/10/11 07:47:19;;;;;;;13.60;8.55;;;;;;;15.06;55.96;100346.59;4482644;32;33442;-50
2021/10/11 07:49:46;;;;;;;16.70;9.73;;;;;;;15.09;54.03;100347.47;4482910;32;33979;-49
2021/10/11 07:52:14;;;;;;;13.13;9.27;;;;;;;14.75;54.33;100346.00;4482794;32;34945;-46
2021/10/11 07:54:41;;;;;;;15.07;8.80;;;;;;;14.72;56.52;100341.66;4483186;32;34973;-47
2021/10/11 07:57:09;;;;;;;15.15;9.45;;;;;;;14.90;55.73;100346.72;4483187;32;33689;-47
2021/10/11 07:59:37;;;;;;;16.70;9.35;;;;;;;14.93;55.97;100337.97;4468971;32;34132;-47
2021/10/11 08:02:04;;;;;;;24.45;10.88;;;;;;;14.89;54.83;100333.66;4468734;32;35819;-47
2021/10/11 08:04:32;;;;;;;15.65;9.23;;;;;;;15.06;54.91;100331.75;4482863;32;35122;-47
2021/10/11 08:07:00;;;;;;;15.52;9.95;;;;;;;14.82;53.32;100326.75;4482775;32;33403;-47
2021/10/11 08:09:27;;;;;;;16.05;9.75;;;;;;;14.67;53.32;100324.25;4482578;32;35253;-47
2021/10/11 08:11:55;;;;;;;15.93;10.18;;;;;;;14.61;54.54;100326.94;4482372;32;34727;-51
2021/10/11 08:14:22;;;;;;;18.55;10.80;;;;;;;14.76;55.25;100332.06;4482089;32;34362;-49
2021/10/11 08:16:50;;;;;;;20.08;12.20;;;;;;;14.87;55.40;100320.59;4482133;32;34133;-47
2021/10/11 08:19:17;;;;;;;17.80;11.32;;;;;;;14.72;53.95;100325.09;4482107;32;33943;-48
2021/10/11 08:21:45;;;;;;;22.25;11.75;;;;;;;14.74;54.25;100323.31;4482222;32;35821;-47
2021/10/11 08:24:14;;;;;;;24.20;13.68;;;;;;;14.75;55.06;100327.69;4481817;32;34652;-47
2021/10/11 08:26:41;;;;;;;20.27;13.18;;;;;;;14.59;53.90;100320.84;4481585;32;34325;-47
2021/10/11 08:29:09;;;;;;;21.85;12.90;;;;;;;14.53;55.02;100329.59;4467425;32;34820;-47
2021/10/11 08:31:36;;;;;;;26.70;12.40;;;;;;;14.71;55.87;100318.13;4481477;32;34877;-47
2021/10/11 08:34:05;;;;;;;24.45;12.48;;;;;;;14.57;55.11;100325.22;4481171;32;34543;-48
2021/10/11 08:36:33;;;;;;;21.62;12.05;;;;;;;14.74;54.68;100324.19;4481564;32;34437;-50
2021/10/11 08:39:00;;;;;;;20.30;12.63;;;;;;;14.83;54.48;100321.50;4481670;32;34258;-46
2021/10/11 08:41:28;;;;;;;17.95;11.80;;;;;;;14.82;54.96;100331.97;4481708;32;35350;-50
2021/10/11 08:43:55;;;;;;;19.62;11.02;;;;;;;14.62;54.17;100331.31;4467287;32;34138;-47
2021/10/11 08:46:23;;;;;;;21.42;12.23;;;;;;;14.63;55.42;100322.56;4481510;32;33352;-48
2021/10/11 08:48:51;;;;;;;19.85;12.05;;;;;;;14.79;55.19;100324.16;4481427;32;34678;-47
2021/10/11 08:51:18;;;;;;;19.87;12.60;;;;;;;14.80;55.16;100331.13;4481347;32;34750;-47
2021/10/11 08:53:46;;;;;;;17.55;11.60;;;;;;;14.96;54.78;100330.09;4481359;32;35249;-52
2021/10/11 08:56:13;;;;;;;20.75;13.20;;;;;;;14.90;54.67;100335.41;4481514;32;34139;-47
2021/10/11 08:58:45;;;;;;;27.23;13.07;;;;;;;15.11;54.10;100335.22;4481606;32;34898;-46
2021/10/11 09:01:14;;;;;;;22.87;12.73;;;;;;;14.90;55.03;100335.41;4481509;32;37252;-47
2021/10/11 09:03:42;;;;;;;27.02;13.30;;;;;;;15.13;54.28;100336.06;4481878;32;35581;-47
2021/10/11 09:06:11;;;;;;;22.20;12.93;;;;;;;15.04;54.69;100338.78;4481728;32;34239;-48
2021/10/11 09:08:40;;;;;;;23.05;12.80;;;;;;;15.00;54.62;100339.66;4481360;32;36405;-48
2021/10/11 09:11:10;;;;;;;23.00;13.07;;;;;;;14.91;54.42;100331.91;4481470;32;35895;-47
2021/10/11 09:13:41;;;;;;;27.40;14.27;;;;;;;14.80;55.44;100328.53;4481070;32;34663;-46
2021/10/11 09:16:12;;;;;;;21.65;12.90;;;;;;;14.90;54.66;100330.19;4481432;32;34157;-49
2021/10/11 09:18:42;;;;;;;20.35;12.57;;;;;;;14.93;54.78;100331.00;4481656;32;34556;-46
2021/10/11 09:21:09;;;;;;;24.25;11.85;;;;;;;15.08;55.12;100323.88;4467134;32;35063;-46
2021/10/11 09:23:37;;;;;;;21.37;13.35;;;;;;;15.15;54.87;100325.53;4481392;32;34425;-50
2021/10/11 09:26:16;;;;;;;21.35;13.02;;;;;;;15.26;54.97;100319.31;4481266;32;33568;-47
2021/10/11 09:28:54;;;;;;;22.77;13.48;;;;;;;15.20;55.64;100318.50;4481427;32;33823;-48
2021/10/11 09:31:40;;;;;;;23.92;13.32;;;;;;;15.29;55.43;100321.03;4481558;32;35801;-46
2021/10/11 09:34:19;;;;;;;23.67;13.07;;;;;;;15.53;53.77;100324.28;4467217;32;34116;-46
2021/10/11 09:36:58;;;;;;;24.50;12.88;;;;;;;15.46;53.71;100317.38;4481143;32;33378;-47
2021/10/11 09:39:27;;;;;;;19.62;11.55;;;;;;;15.37;53.74;100319.19;4481126;32;34028;-51
2021/10/11 09:41:56;;;;;;;20.20;12.43;;;;;;;15.39;53.25;100322.66;4481159;32;36048;-47
2021/10/11 09:44:23;;;;;;;18.75;12.27;;;;;;;15.62;52.38;100319.81;4466967;32;35264;-47
2021/10/11 09:46:56;;;;;;;22.30;12.73;;;;;;;15.66;51.89;100316.25;4466522;32;33449;-47
2021/10/11 09:49:24;;;;;;;22.50;13.48;;;;;;;15.33;53.12;100309.66;4481257;32;34035;-52
2021/10/11 09:51:53;;;;;;;25.12;14.10;;;;;;;15.39;52.98;100309.56;4481013;32;36110;-46
2021/10/11 09:54:22;;;;;;;24.80;14.05;;;;;;;15.33;53.41;100310.50;4481135;32;34690;-46
2021/10/11 09:56:49;;;;;;;24.50;13.40;;;;;;;15.10;53.94;100309.00;4481303;32;33826;-47
2021/10/11 09:59:18;;;;;;;25.73;14.20;;;;;;;15.32;53.66;100314.00;4481091;32;34238;-47
2021/10/11 10:01:47;;;;;;;23.10;13.95;;;;;;;15.16;54.07;100309.84;4481326;32;35441;-46
2021/10/11 10:04:26;;;;;;;24.10;15.13;;;;;;;14.87;53.06;100312.75;4481818;32;35241;-47
2021/10/11 10:06:54;;;;;;;21.40;14.38;;;;;;;15.07;51.78;100299.41;4467434;32;34641;-47
2021/10/11 10:09:24;;;;;;;27.30;14.13;;;;;;;15.05;53.07;100297.72;4467474;32;33833;-46
2021/10/11 10:11:51;;;;;;;22.60;14.77;;;;;;;15.09;52.70;100296.81;4467421;32;36241;-46
2021/10/11 10:14:23;;;;;;;22.37;13.95;;;;;;;15.17;52.35;100295.81;4467042;32;34739;-48
2021/10/11 10:16:52;;;;;;;25.62;14.60;;;;;;;15.14;53.19;100295.84;4481215;32;34768;-47
2021/10/11 10:19:32;;;;;;;23.20;14.10;;;;;;;15.16;53.06;100291.50;4481208;32;35164;-46
2021/10/11 10:22:11;;;;;;;25.02;15.05;;;;;;;15.15;52.77;100294.09;4480965;32;34960;-46
2021/10/11 10:24:40;;;;;;;25.70;14.98;;;;;;;15.03;53.39;100289.00;4480883;32;34507;-47
2021/10/11 10:27:10;;;;;;;25.12;15.43;;;;;;;14.99;53.18;100290.78;4480938;32;33723;-52
2021/10/11 10:29:50;;;;;;;23.25;15.93;;;;;;;15.14;53.33;100282.75;4480891;32;34034;-52
2021/10/11 10:32:19;;;;;;;22.80;16.23;;;;;;;14.84;53.76;100288.31;4480908;32;35500;-47
2021/10/11 10:34:58;;;;;;;26.67;17.50;;;;;;;14.97;52.91;100284.72;4480846;32;35179;-50
2021/10/11 10:37:36;;;;;;;32.30;18.30;;;;;;;14.98;53.47;100281.19;4480660;32;33390;-47
2021/10/11 10:40:10;;;;;;;29.30;17.65;;;;;;;14.75;54.13;100275.31;4480612;32;34189;-46
2021/10/11 10:42:37;;;;;;;29.70;19.17;;;;;;;14.66;55.23;100273.66;4480538;32;35790;-47
2021/10/11 10:45:19;;;;;;;32.03;18.12;;;;;;;14.83;55.45;100268.28;4480561;32;34739;-49
2021/10/11 10:47:49;;;;;;;26.48;16.98;;;;;;;14.81;55.77;100263.03;4466435;32;32926;-48
2021/10/11 10:50:19;;;;;;;26.67;16.35;;;;;;;14.81;54.43;100262.16;4480369;32;33999;-47
2021/10/11 10:52:54;;;;;;;28.08;17.20;;;;;;;14.95;53.60;100255.06;4480379;32;34722;-48
2021/10/11 10:55:22;;;;;;;27.75;16.25;;;;;;;14.67;55.18;100264.03;4466288;32;35770;-47
2021/10/11 10:58:01;;;;;;;27.75;16.75;;;;;;;14.56;54.45;100258.91;4481935;32;33734;-47
2021/10/11 11:00:29;;;;;;;28.67;17.12;;;;;;;14.49;54.24;100256.38;4482860;32;34952;-47
2021/10/11 11:02:57;;;;;;;29.45;17.00;;;;;;;14.52;53.82;100252.00;4482877;32;35055;-47
2021/10/11 11:05:27;;;;;;;35.60;19.50;;;;;;;14.64;53.94;100251.84;4482950;32;35426;-48
2021/10/11 11:07:55;;;;;;;29.50;18.60;;;;;;;14.59;53.79;100250.16;4482865;32;34428;-47
2021/10/11 11:10:26;;;;;;;30.73;19.58;;;;;;;14.49;54.31;100243.28;4482890;32;34595;-51
2021/10/11 11:12:56;;;;;;;29.42;18.90;;;;;;;14.42;54.37;100241.59;4483093;32;34654;-47
2021/10/11 11:15:37;;;;;;;34.08;19.27;;;;;;;14.52;54.69;100235.41;4483129;32;34353;-46
2021/10/11 11:18:07;;;;;;;31.17;20.23;;;;;;;14.75;54.03;100225.56;4483078;32;34217;-51
2021/10/11 11:20:38;;;;;;;31.08;20.70;;;;;;;14.55;54.03;100232.75;4468754;32;34115;-47